sensor_id;sensor_type;location;lat;lon;timestamp;P1;durP1;ratioP1;P2;durP2;ratioP2
18776;SDS011;9517;51.174;4.160;2023-08-12T00:00:56;11.10;;;4.50;;
18776;SDS011;9517;51.174;4.160;2023-08-12T00:03:25;10.27;;;4.43;;
18776;SDS011;9517;51.174;4.160;2023-08-12T00:05:52;11.50;;;4.77;;
18776;SDS011;9517;51.174;4.160;2023-08-12T00:08:21;11.73;;;4.70;;
18776;SDS011;9517;51.174;4.160;2023-08-12T00:10:48;11.57;;;4.63;;
18776;SDS011;9517;51.174;4.160;2023-08-12T00:13:15;13.53;;;5.20;;
18776;SDS011;9517;51.174;4.160;2023-08-12T00:15:43;15.20;;;5.30;;
18776;SDS011;9517;51.174;4.160;2023-08-12T00:18:10;16.33;;;5.33;;
18776;SDS011;9517;51.174;4.160;2023-08-12T00:20:38;12.30;;;5.30;;
18776;SDS011;9517;51.174;4.160;2023-08-12T00:23:05;13.40;;;5.30;;
18776;SDS011;9517;51.174;4.160;2023-08-12T00:25:32;12.90;;;5.13;;
18776;SDS011;9517;51.174;4.160;2023-08-12T00:28:00;11.73;;;5.03;;
18776;SDS011;9517;51.174;4.160;2023-08-12T00:30:27;14.47;;;5.07;;
18776;SDS011;9517;51.174;4.160;2023-08-12T00:32:54;18.60;;;5.40;;
18776;SDS011;9517;51.174;4.160;2023-08-12T00:35:21;14.30;;;5.30;;
18776;SDS011;9517;51.174;4.160;2023-08-12T00:37:50;11.53;;;4.93;;
18776;SDS011;9517;51.174;4.160;2023-08-12T00:40:17;16.17;;;6.00;;
18776;SDS011;9517;51.174;4.160;2023-08-12T00:42:45;15.40;;;5.87;;
18776;SDS011;9517;51.174;4.160;2023-08-12T00:45:13;16.30;;;6.37;;
18776;SDS011;9517;51.174;4.160;2023-08-12T00:47:40;14.30;;;5.30;;
18776;SDS011;9517;51.174;4.160;2023-08-12T00:50:08;12.23;;;5.33;;
18776;SDS011;9517;51.174;4.160;2023-08-12T00:52:37;14.83;;;6.00;;
18776;SDS011;9517;51.174;4.160;2023-08-12T00:55:06;14.37;;;5.77;;
18776;SDS011;9517;51.174;4.160;2023-08-12T00:57:34;14.73;;;5.20;;
18776;SDS011;9517;51.174;4.160;2023-08-12T01:00:02;15.40;;;5.67;;
18776;SDS011;9517;51.174;4.160;2023-08-12T01:02:29;17.60;;;6.10;;
18776;SDS011;9517;51.174;4.160;2023-08-12T01:04:57;15.73;;;5.93;;
18776;SDS011;9517;51.174;4.160;2023-08-12T01:07:25;13.70;;;5.63;;
18776;SDS011;9517;51.174;4.160;2023-08-12T01:09:52;16.73;;;6.27;;
18776;SDS011;9517;51.174;4.160;2023-08-12T01:12:23;12.27;;;5.63;;
18776;SDS011;9517;51.174;4.160;2023-08-12T01:14:56;16.33;;;6.10;;
18776;SDS011;9517;51.174;4.160;2023-08-12T01:17:34;16.27;;;5.97;;
18776;SDS011;9517;51.174;4.160;2023-08-12T01:20:05;15.33;;;6.10;;
18776;SDS011;9517;51.174;4.160;2023-08-12T01:22:34;13.63;;;6.07;;
18776;SDS011;9517;51.174;4.160;2023-08-12T01:25:07;13.03;;;5.47;;
18776;SDS011;9517;51.174;4.160;2023-08-12T01:27:34;14.90;;;5.80;;
18776;SDS011;9517;51.174;4.160;2023-08-12T01:30:02;17.33;;;5.57;;
18776;SDS011;9517;51.174;4.160;2023-08-12T01:32:34;13.13;;;5.73;;
18776;SDS011;9517;51.174;4.160;2023-08-12T01:35:06;13.70;;;6.23;;
18776;SDS011;9517;51.174;4.160;2023-08-12T01:37:42;16.00;;;5.97;;
18776;SDS011;9517;51.174;4.160;2023-08-12T01:40:11;15.73;;;6.13;;
18776;SDS011;9517;51.174;4.160;2023-08-12T01:42:40;15.00;;;6.37;;
18776;SDS011;9517;51.174;4.160;2023-08-12T01:45:08;16.83;;;6.20;;
18776;SDS011;9517;51.174;4.160;2023-08-12T01:47:36;15.20;;;6.40;;
18776;SDS011;9517;51.174;4.160;2023-08-12T01:50:03;14.97;;;5.67;;
18776;SDS011;9517;51.174;4.160;2023-08-12T01:52:31;13.57;;;5.90;;
18776;SDS011;9517;51.174;4.160;2023-08-12T01:54:58;18.03;;;6.33;;
18776;SDS011;9517;51.174;4.160;2023-08-12T01:57:27;16.73;;;5.90;;
18776;SDS011;9517;51.174;4.160;2023-08-12T01:59:54;16.80;;;6.07;;
18776;SDS011;9517;51.174;4.160;2023-08-12T02:02:21;15.60;;;6.20;;
18776;SDS011;9517;51.174;4.160;2023-08-12T02:04:48;15.80;;;6.53;;
18776;SDS011;9517;51.174;4.160;2023-08-12T02:07:15;13.63;;;6.70;;
18776;SDS011;9517;51.174;4.160;2023-08-12T02:09:42;15.97;;;6.80;;
18776;SDS011;9517;51.174;4.160;2023-08-12T02:12:09;17.03;;;6.40;;
18776;SDS011;9517;51.174;4.160;2023-08-12T02:14:37;12.57;;;6.07;;
18776;SDS011;9517;51.174;4.160;2023-08-12T02:17:04;13.03;;;6.00;;
18776;SDS011;9517;51.174;4.160;2023-08-12T02:19:31;16.07;;;6.90;;
18776;SDS011;9517;51.174;4.160;2023-08-12T02:21:59;13.03;;;6.17;;
18776;SDS011;9517;51.174;4.160;2023-08-12T02:24:26;14.77;;;5.87;;
18776;SDS011;9517;51.174;4.160;2023-08-12T02:26:53;11.03;;;5.03;;
18776;SDS011;9517;51.174;4.160;2023-08-12T02:29:20;11.10;;;5.30;;
18776;SDS011;9517;51.174;4.160;2023-08-12T02:31:49;12.90;;;5.00;;
18776;SDS011;9517;51.174;4.160;2023-08-12T02:34:16;11.43;;;4.40;;
18776;SDS011;9517;51.174;4.160;2023-08-12T02:36:43;10.97;;;4.80;;
18776;SDS011;9517;51.174;4.160;2023-08-12T02:39:11;10.80;;;4.17;;
18776;SDS011;9517;51.174;4.160;2023-08-12T02:41:39;14.37;;;4.90;;
18776;SDS011;9517;51.174;4.160;2023-08-12T02:44:06;9.37;;;3.67;;
18776;SDS011;9517;51.174;4.160;2023-08-12T02:46:33;10.30;;;4.30;;
18776;SDS011;9517;51.174;4.160;2023-08-12T02:49:01;10.87;;;4.00;;
18776;SDS011;9517;51.174;4.160;2023-08-12T02:51:28;10.30;;;4.17;;
18776;SDS011;9517;51.174;4.160;2023-08-12T02:53:55;9.67;;;4.03;;
18776;SDS011;9517;51.174;4.160;2023-08-12T02:56:22;11.13;;;4.17;;
18776;SDS011;9517;51.174;4.160;2023-08-12T02:58:49;9.93;;;4.10;;
18776;SDS011;9517;51.174;4.160;2023-08-12T03:01:17;10.10;;;4.47;;
18776;SDS011;9517;51.174;4.160;2023-08-12T03:03:44;11.47;;;4.50;;
18776;SDS011;9517;51.174;4.160;2023-08-12T03:06:13;10.20;;;3.90;;
18776;SDS011;9517;51.174;4.160;2023-08-12T03:08:40;9.20;;;3.90;;
18776;SDS011;9517;51.174;4.160;2023-08-12T03:11:07;9.63;;;3.70;;
18776;SDS011;9517;51.174;4.160;2023-08-12T03:13:34;10.40;;;3.93;;
18776;SDS011;9517;51.174;4.160;2023-08-12T03:16:01;11.80;;;4.80;;
18776;SDS011;9517;51.174;4.160;2023-08-12T03:18:28;9.87;;;4.17;;
18776;SDS011;9517;51.174;4.160;2023-08-12T03:20:55;11.13;;;4.40;;
18776;SDS011;9517;51.174;4.160;2023-08-12T03:23:24;10.20;;;4.23;;
18776;SDS011;9517;51.174;4.160;2023-08-12T03:25:51;9.73;;;4.13;;
18776;SDS011;9517;51.174;4.160;2023-08-12T03:28:18;9.80;;;4.40;;
18776;SDS011;9517;51.174;4.160;2023-08-12T03:30:49;9.73;;;3.90;;
18776;SDS011;9517;51.174;4.160;2023-08-12T03:33:17;11.43;;;4.80;;
18776;SDS011;9517;51.174;4.160;2023-08-12T03:35:46;10.83;;;4.70;;
18776;SDS011;9517;51.174;4.160;2023-08-12T03:38:14;11.63;;;4.20;;
18776;SDS011;9517;51.174;4.160;2023-08-12T03:40:43;11.30;;;4.77;;
18776;SDS011;9517;51.174;4.160;2023-08-12T03:43:10;9.17;;;4.30;;
18776;SDS011;9517;51.174;4.160;2023-08-12T03:45:40;12.17;;;4.83;;
18776;SDS011;9517;51.174;4.160;2023-08-12T03:48:08;8.93;;;3.83;;
18776;SDS011;9517;51.174;4.160;2023-08-12T03:50:35;10.57;;;4.53;;
18776;SDS011;9517;51.174;4.160;2023-08-12T03:53:03;11.70;;;4.40;;
18776;SDS011;9517;51.174;4.160;2023-08-12T03:55:31;11.30;;;5.00;;
18776;SDS011;9517;51.174;4.160;2023-08-12T03:58:00;11.27;;;4.23;;
18776;SDS011;9517;51.174;4.160;2023-08-12T04:00:27;11.07;;;4.80;;
18776;SDS011;9517;51.174;4.160;2023-08-12T04:02:55;9.63;;;4.23;;
18776;SDS011;9517;51.174;4.160;2023-08-12T04:05:22;10.57;;;4.30;;
18776;SDS011;9517;51.174;4.160;2023-08-12T04:07:49;10.50;;;4.33;;
18776;SDS011;9517;51.174;4.160;2023-08-12T04:10:16;10.53;;;4.10;;
18776;SDS011;9517;51.174;4.160;2023-08-12T04:12:43;10.77;;;4.17;;
18776;SDS011;9517;51.174;4.160;2023-08-12T04:15:12;8.87;;;3.63;;
18776;SDS011;9517;51.174;4.160;2023-08-12T04:17:39;8.70;;;3.53;;
18776;SDS011;9517;51.174;4.160;2023-08-12T04:20:07;9.37;;;3.80;;
18776;SDS011;9517;51.174;4.160;2023-08-12T04:22:34;10.37;;;3.87;;
18776;SDS011;9517;51.174;4.160;2023-08-12T04:25:02;9.37;;;3.33;;
18776;SDS011;9517;51.174;4.160;2023-08-12T04:27:29;8.60;;;3.83;;
18776;SDS011;9517;51.174;4.160;2023-08-12T04:29:56;11.03;;;3.93;;
18776;SDS011;9517;51.174;4.160;2023-08-12T04:32:25;10.43;;;4.10;;
18776;SDS011;9517;51.174;4.160;2023-08-12T04:34:53;9.97;;;4.03;;
18776;SDS011;9517;51.174;4.160;2023-08-12T04:37:20;10.07;;;4.20;;
18776;SDS011;9517;51.174;4.160;2023-08-12T04:39:48;11.93;;;4.63;;
18776;SDS011;9517;51.174;4.160;2023-08-12T04:42:16;10.87;;;4.20;;
18776;SDS011;9517;51.174;4.160;2023-08-12T04:44:43;10.97;;;4.60;;
18776;SDS011;9517;51.174;4.160;2023-08-12T04:47:10;9.07;;;4.13;;
18776;SDS011;9517;51.174;4.160;2023-08-12T04:49:39;10.10;;;4.13;;
18776;SDS011;9517;51.174;4.160;2023-08-12T04:52:06;9.67;;;4.00;;
18776;SDS011;9517;51.174;4.160;2023-08-12T04:54:34;8.67;;;3.47;;
18776;SDS011;9517;51.174;4.160;2023-08-12T04:57:01;8.73;;;3.70;;
18776;SDS011;9517;51.174;4.160;2023-08-12T04:59:28;9.73;;;3.60;;
18776;SDS011;9517;51.174;4.160;2023-08-12T05:01:55;9.57;;;3.57;;
18776;SDS011;9517;51.174;4.160;2023-08-12T05:04:22;9.77;;;3.50;;
18776;SDS011;9517;51.174;4.160;2023-08-12T05:06:50;9.03;;;3.80;;
18776;SDS011;9517;51.174;4.160;2023-08-12T05:09:17;8.77;;;3.40;;
18776;SDS011;9517;51.174;4.160;2023-08-12T05:11:45;8.23;;;3.20;;
18776;SDS011;9517;51.174;4.160;2023-08-12T05:14:12;8.73;;;3.07;;
18776;SDS011;9517;51.174;4.160;2023-08-12T05:16:39;8.27;;;3.20;;
18776;SDS011;9517;51.174;4.160;2023-08-12T05:19:06;8.13;;;2.57;;
18776;SDS011;9517;51.174;4.160;2023-08-12T05:21:33;5.23;;;2.17;;
18776;SDS011;9517;51.174;4.160;2023-08-12T05:24:01;7.40;;;2.63;;
18776;SDS011;9517;51.174;4.160;2023-08-12T05:26:29;4.73;;;2.00;;
18776;SDS011;9517;51.174;4.160;2023-08-12T05:28:56;4.90;;;2.00;;
18776;SDS011;9517;51.174;4.160;2023-08-12T05:31:23;5.27;;;2.07;;
18776;SDS011;9517;51.174;4.160;2023-08-12T05:33:50;7.17;;;2.20;;
18776;SDS011;9517;51.174;4.160;2023-08-12T05:36:17;5.03;;;1.77;;
18776;SDS011;9517;51.174;4.160;2023-08-12T05:38:44;5.00;;;1.90;;
18776;SDS011;9517;51.174;4.160;2023-08-12T05:41:13;5.27;;;1.87;;
18776;SDS011;9517;51.174;4.160;2023-08-12T05:43:40;8.27;;;2.10;;
18776;SDS011;9517;51.174;4.160;2023-08-12T05:46:07;2.87;;;1.10;;
18776;SDS011;9517;51.174;4.160;2023-08-12T05:48:34;4.93;;;1.60;;
18776;SDS011;9517;51.174;4.160;2023-08-12T05:51:01;2.87;;;0.97;;
18776;SDS011;9517;51.174;4.160;2023-08-12T05:53:28;3.87;;;1.20;;
18776;SDS011;9517;51.174;4.160;2023-08-12T05:55:55;2.87;;;1.27;;
18776;SDS011;9517;51.174;4.160;2023-08-12T05:58:24;2.13;;;1.07;;
18776;SDS011;9517;51.174;4.160;2023-08-12T06:00:51;3.40;;;1.30;;
18776;SDS011;9517;51.174;4.160;2023-08-12T06:03:18;3.63;;;1.20;;
18776;SDS011;9517;51.174;4.160;2023-08-12T06:05:46;4.03;;;1.30;;
18776;SDS011;9517;51.174;4.160;2023-08-12T06:08:13;5.47;;;1.40;;
18776;SDS011;9517;51.174;4.160;2023-08-12T06:10:41;3.07;;;1.20;;
18776;SDS011;9517;51.174;4.160;2023-08-12T06:13:08;2.33;;;0.90;;
18776;SDS011;9517;51.174;4.160;2023-08-12T06:15:36;2.17;;;0.73;;
18776;SDS011;9517;51.174;4.160;2023-08-12T06:18:04;2.27;;;0.80;;
18776;SDS011;9517;51.174;4.160;2023-08-12T06:20:31;2.23;;;0.90;;
18776;SDS011;9517;51.174;4.160;2023-08-12T06:23:01;2.27;;;0.80;;
18776;SDS011;9517;51.174;4.160;2023-08-12T06:25:29;1.47;;;0.60;;
18776;SDS011;9517;51.174;4.160;2023-08-12T06:27:56;1.40;;;0.60;;
18776;SDS011;9517;51.174;4.160;2023-08-12T06:30:23;1.47;;;0.70;;
18776;SDS011;9517;51.174;4.160;2023-08-12T06:32:52;2.03;;;0.77;;
18776;SDS011;9517;51.174;4.160;2023-08-12T06:35:19;3.47;;;1.27;;
18776;SDS011;9517;51.174;4.160;2023-08-12T06:37:46;1.63;;;0.60;;
18776;SDS011;9517;51.174;4.160;2023-08-12T06:40:13;3.53;;;1.23;;
18776;SDS011;9517;51.174;4.160;2023-08-12T06:42:40;2.40;;;1.00;;
18776;SDS011;9517;51.174;4.160;2023-08-12T06:45:08;3.77;;;1.20;;
18776;SDS011;9517;51.174;4.160;2023-08-12T06:47:36;4.80;;;1.40;;
18776;SDS011;9517;51.174;4.160;2023-08-12T06:50:05;5.47;;;1.50;;
18776;SDS011;9517;51.174;4.160;2023-08-12T06:52:32;2.50;;;0.77;;
18776;SDS011;9517;51.174;4.160;2023-08-12T06:54:59;4.10;;;1.47;;
18776;SDS011;9517;51.174;4.160;2023-08-12T06:57:26;3.83;;;1.03;;
18776;SDS011;9517;51.174;4.160;2023-08-12T06:59:54;4.00;;;1.37;;
18776;SDS011;9517;51.174;4.160;2023-08-12T07:02:21;4.43;;;1.60;;
18776;SDS011;9517;51.174;4.160;2023-08-12T07:04:48;2.70;;;1.07;;
18776;SDS011;9517;51.174;4.160;2023-08-12T07:07:17;2.80;;;1.33;;
18776;SDS011;9517;51.174;4.160;2023-08-12T07:09:44;3.13;;;0.90;;
18776;SDS011;9517;51.174;4.160;2023-08-12T07:12:11;2.73;;;1.00;;
18776;SDS011;9517;51.174;4.160;2023-08-12T07:14:40;2.40;;;0.80;;
18776;SDS011;9517;51.174;4.160;2023-08-12T07:17:10;2.13;;;0.80;;
18776;SDS011;9517;51.174;4.160;2023-08-12T07:19:38;3.40;;;0.90;;
18776;SDS011;9517;51.174;4.160;2023-08-12T07:22:06;4.97;;;1.13;;
18776;SDS011;9517;51.174;4.160;2023-08-12T07:24:36;4.23;;;0.70;;
18776;SDS011;9517;51.174;4.160;2023-08-12T07:27:03;1.80;;;0.60;;
18776;SDS011;9517;51.174;4.160;2023-08-12T07:29:30;3.20;;;1.03;;
18776;SDS011;9517;51.174;4.160;2023-08-12T07:31:58;3.50;;;1.03;;
18776;SDS011;9517;51.174;4.160;2023-08-12T07:34:25;3.10;;;1.10;;
18776;SDS011;9517;51.174;4.160;2023-08-12T07:36:52;5.33;;;1.13;;
18776;SDS011;9517;51.174;4.160;2023-08-12T07:39:19;4.97;;;0.90;;
18776;SDS011;9517;51.174;4.160;2023-08-12T07:41:46;4.13;;;1.03;;
18776;SDS011;9517;51.174;4.160;2023-08-12T07:44:13;5.43;;;1.20;;
18776;SDS011;9517;51.174;4.160;2023-08-12T07:46:41;4.07;;;0.83;;
18776;SDS011;9517;51.174;4.160;2023-08-12T07:49:08;4.53;;;1.60;;
18776;SDS011;9517;51.174;4.160;2023-08-12T07:51:36;5.17;;;1.40;;
18776;SDS011;9517;51.174;4.160;2023-08-12T07:54:03;3.70;;;1.20;;
18776;SDS011;9517;51.174;4.160;2023-08-12T07:56:31;5.57;;;1.30;;
18776;SDS011;9517;51.174;4.160;2023-08-12T07:58:59;4.77;;;1.70;;
18776;SDS011;9517;51.174;4.160;2023-08-12T08:01:26;3.80;;;1.37;;
18776;SDS011;9517;51.174;4.160;2023-08-12T08:03:54;3.83;;;1.50;;
18776;SDS011;9517;51.174;4.160;2023-08-12T08:06:21;3.63;;;1.30;;
18776;SDS011;9517;51.174;4.160;2023-08-12T08:08:48;3.97;;;0.80;;
18776;SDS011;9517;51.174;4.160;2023-08-12T08:11:16;2.97;;;1.10;;
18776;SDS011;9517;51.174;4.160;2023-08-12T08:13:43;4.93;;;1.03;;
18776;SDS011;9517;51.174;4.160;2023-08-12T08:16:11;5.33;;;1.23;;
18776;SDS011;9517;51.174;4.160;2023-08-12T08:18:38;2.43;;;0.80;;
18776;SDS011;9517;51.174;4.160;2023-08-12T08:21:05;3.20;;;0.97;;
18776;SDS011;9517;51.174;4.160;2023-08-12T08:23:32;4.47;;;1.20;;
18776;SDS011;9517;51.174;4.160;2023-08-12T08:25:59;9.70;;;3.23;;
18776;SDS011;9517;51.174;4.160;2023-08-12T08:28:26;12.13;;;4.67;;
18776;SDS011;9517;51.174;4.160;2023-08-12T08:30:53;12.07;;;4.80;;
18776;SDS011;9517;51.174;4.160;2023-08-12T08:33:22;18.20;;;6.30;;
18776;SDS011;9517;51.174;4.160;2023-08-12T08:35:49;11.23;;;5.53;;
18776;SDS011;9517;51.174;4.160;2023-08-12T08:38:16;11.63;;;5.27;;
18776;SDS011;9517;51.174;4.160;2023-08-12T08:40:43;14.03;;;5.67;;
18776;SDS011;9517;51.174;4.160;2023-08-12T08:43:10;14.17;;;5.17;;
18776;SDS011;9517;51.174;4.160;2023-08-12T08:45:41;12.03;;;4.37;;
18776;SDS011;9517;51.174;4.160;2023-08-12T08:48:10;7.60;;;2.80;;
18776;SDS011;9517;51.174;4.160;2023-08-12T08:50:39;9.40;;;2.67;;
18776;SDS011;9517;51.174;4.160;2023-08-12T08:53:07;9.10;;;2.20;;
18776;SDS011;9517;51.174;4.160;2023-08-12T08:55:34;7.27;;;2.33;;
18776;SDS011;9517;51.174;4.160;2023-08-12T08:58:01;7.57;;;2.20;;
18776;SDS011;9517;51.174;4.160;2023-08-12T09:00:29;6.80;;;2.20;;
18776;SDS011;9517;51.174;4.160;2023-08-12T09:02:57;8.03;;;1.87;;
18776;SDS011;9517;51.174;4.160;2023-08-12T09:05:24;6.10;;;1.80;;
18776;SDS011;9517;51.174;4.160;2023-08-12T09:07:54;5.23;;;1.70;;
18776;SDS011;9517;51.174;4.160;2023-08-12T09:10:22;3.97;;;1.23;;
18776;SDS011;9517;51.174;4.160;2023-08-12T09:12:53;6.37;;;1.20;;
18776;SDS011;9517;51.174;4.160;2023-08-12T09:15:21;6.67;;;1.60;;
18776;SDS011;9517;51.174;4.160;2023-08-12T09:17:49;3.63;;;1.20;;
18776;SDS011;9517;51.174;4.160;2023-08-12T09:20:16;5.07;;;1.27;;
18776;SDS011;9517;51.174;4.160;2023-08-12T09:22:43;4.80;;;1.40;;
18776;SDS011;9517;51.174;4.160;2023-08-12T09:25:12;3.13;;;1.20;;
18776;SDS011;9517;51.174;4.160;2023-08-12T09:27:39;5.03;;;1.33;;
18776;SDS011;9517;51.174;4.160;2023-08-12T09:30:06;4.03;;;1.33;;
18776;SDS011;9517;51.174;4.160;2023-08-12T09:32:34;5.03;;;1.43;;
18776;SDS011;9517;51.174;4.160;2023-08-12T09:35:03;2.90;;;1.30;;
18776;SDS011;9517;51.174;4.160;2023-08-12T09:37:31;7.23;;;1.50;;
18776;SDS011;9517;51.174;4.160;2023-08-12T09:39:58;5.27;;;1.53;;
18776;SDS011;9517;51.174;4.160;2023-08-12T09:42:27;5.27;;;1.23;;
18776;SDS011;9517;51.174;4.160;2023-08-12T09:44:55;6.67;;;1.30;;
18776;SDS011;9517;51.174;4.160;2023-08-12T09:47:24;4.37;;;1.20;;
18776;SDS011;9517;51.174;4.160;2023-08-12T09:49:52;5.90;;;1.73;;
18776;SDS011;9517;51.174;4.160;2023-08-12T09:52:19;4.53;;;1.57;;
18776;SDS011;9517;51.174;4.160;2023-08-12T09:54:46;4.10;;;1.60;;
18776;SDS011;9517;51.174;4.160;2023-08-12T09:57:14;5.57;;;1.60;;
18776;SDS011;9517;51.174;4.160;2023-08-12T09:59:48;4.93;;;1.47;;
18776;SDS011;9517;51.174;4.160;2023-08-12T10:02:18;7.13;;;1.90;;
18776;SDS011;9517;51.174;4.160;2023-08-12T10:04:47;7.53;;;1.67;;
18776;SDS011;9517;51.174;4.160;2023-08-12T10:07:21;4.40;;;1.40;;
18776;SDS011;9517;51.174;4.160;2023-08-12T10:09:48;5.67;;;1.50;;
18776;SDS011;9517;51.174;4.160;2023-08-12T10:12:15;5.13;;;1.50;;
18776;SDS011;9517;51.174;4.160;2023-08-12T10:14:43;3.47;;;1.33;;
18776;SDS011;9517;51.174;4.160;2023-08-12T10:17:13;4.60;;;1.53;;
18776;SDS011;9517;51.174;4.160;2023-08-12T10:19:44;3.80;;;1.40;;
18776;SDS011;9517;51.174;4.160;2023-08-12T10:22:11;6.10;;;1.70;;
18776;SDS011;9517;51.174;4.160;2023-08-12T10:24:39;5.13;;;1.30;;
18776;SDS011;9517;51.174;4.160;2023-08-12T10:27:09;5.27;;;1.70;;
18776;SDS011;9517;51.174;4.160;2023-08-12T10:29:38;6.67;;;1.70;;
18776;SDS011;9517;51.174;4.160;2023-08-12T10:32:08;4.27;;;1.17;;
18776;SDS011;9517;51.174;4.160;2023-08-12T10:34:36;6.17;;;1.43;;
18776;SDS011;9517;51.174;4.160;2023-08-12T10:37:04;4.13;;;1.03;;
18776;SDS011;9517;51.174;4.160;2023-08-12T10:39:32;2.77;;;0.90;;
18776;SDS011;9517;51.174;4.160;2023-08-12T10:41:59;4.47;;;1.10;;
18776;SDS011;9517;51.174;4.160;2023-08-12T10:44:27;6.20;;;1.30;;
18776;SDS011;9517;51.174;4.160;2023-08-12T10:47:05;4.00;;;1.03;;
18776;SDS011;9517;51.174;4.160;2023-08-12T10:49:39;6.20;;;1.20;;
18776;SDS011;9517;51.174;4.160;2023-08-12T10:52:18;4.37;;;1.17;;
18776;SDS011;9517;51.174;4.160;2023-08-12T10:54:52;4.18;;;1.00;;
18776;SDS011;9517;51.174;4.160;2023-08-12T10:57:20;3.53;;;0.63;;
18776;SDS011;9517;51.174;4.160;2023-08-12T11:00:03;3.20;;;0.95;;
18776;SDS011;9517;51.174;4.160;2023-08-12T11:02:33;5.90;;;1.10;;
18776;SDS011;9517;51.174;4.160;2023-08-12T11:05:03;3.08;;;0.80;;
18776;SDS011;9517;51.174;4.160;2023-08-12T11:07:34;3.85;;;0.93;;
18776;SDS011;9517;51.174;4.160;2023-08-12T11:10:05;3.08;;;0.88;;
18776;SDS011;9517;51.174;4.160;2023-08-12T11:12:36;4.50;;;1.10;;
18776;SDS011;9517;51.174;4.160;2023-08-12T11:15:05;2.63;;;0.90;;
18776;SDS011;9517;51.174;4.160;2023-08-12T11:17:33;6.07;;;0.93;;
18776;SDS011;9517;51.174;4.160;2023-08-12T11:20:01;4.85;;;1.45;;
18776;SDS011;9517;51.174;4.160;2023-08-12T11:22:32;4.53;;;1.30;;
18776;SDS011;9517;51.174;4.160;2023-08-12T11:25:04;2.78;;;1.00;;
18776;SDS011;9517;51.174;4.160;2023-08-12T11:27:40;2.53;;;0.70;;
18776;SDS011;9517;51.174;4.160;2023-08-12T11:30:08;3.20;;;0.80;;
18776;SDS011;9517;51.174;4.160;2023-08-12T11:32:37;2.58;;;1.00;;
18776;SDS011;9517;51.174;4.160;2023-08-12T11:35:07;2.58;;;0.75;;
18776;SDS011;9517;51.174;4.160;2023-08-12T11:37:36;4.15;;;1.40;;
18776;SDS011;9517;51.174;4.160;2023-08-12T11:40:04;4.38;;;1.42;;
18776;SDS011;9517;51.174;4.160;2023-08-12T11:42:34;4.20;;;1.05;;
18776;SDS011;9517;51.174;4.160;2023-08-12T11:45:01;4.75;;;1.20;;
18776;SDS011;9517;51.174;4.160;2023-08-12T11:47:28;2.72;;;0.98;;
18776;SDS011;9517;51.174;4.160;2023-08-12T11:49:55;3.55;;;0.95;;
18776;SDS011;9517;51.174;4.160;2023-08-12T11:52:24;3.60;;;1.17;;
18776;SDS011;9517;51.174;4.160;2023-08-12T11:54:52;4.38;;;0.85;;
18776;SDS011;9517;51.174;4.160;2023-08-12T11:57:21;5.85;;;1.30;;
18776;SDS011;9517;51.174;4.160;2023-08-12T11:59:49;4.47;;;0.90;;
18776;SDS011;9517;51.174;4.160;2023-08-12T12:02:16;4.38;;;1.10;;
18776;SDS011;9517;51.174;4.160;2023-08-12T12:04:43;2.50;;;0.88;;
18776;SDS011;9517;51.174;4.160;2023-08-12T12:07:19;4.20;;;1.35;;
18776;SDS011;9517;51.174;4.160;2023-08-12T12:09:51;4.05;;;1.15;;
18776;SDS011;9517;51.174;4.160;2023-08-12T12:12:22;3.75;;;1.30;;
18776;SDS011;9517;51.174;4.160;2023-08-12T12:14:50;5.38;;;1.13;;
18776;SDS011;9517;51.174;4.160;2023-08-12T12:17:20;3.92;;;1.02;;
18776;SDS011;9517;51.174;4.160;2023-08-12T12:19:51;3.75;;;1.23;;
18776;SDS011;9517;51.174;4.160;2023-08-12T12:22:19;4.15;;;1.25;;
18776;SDS011;9517;51.174;4.160;2023-08-12T12:24:46;2.90;;;1.08;;
18776;SDS011;9517;51.174;4.160;2023-08-12T12:27:15;3.45;;;1.05;;
18776;SDS011;9517;51.174;4.160;2023-08-12T12:29:42;3.75;;;1.20;;
18776;SDS011;9517;51.174;4.160;2023-08-12T12:32:09;6.45;;;1.55;;
18776;SDS011;9517;51.174;4.160;2023-08-12T12:34:37;3.92;;;1.23;;
18776;SDS011;9517;51.174;4.160;2023-08-12T12:37:04;5.55;;;1.65;;
18776;SDS011;9517;51.174;4.160;2023-08-12T12:39:32;2.88;;;0.82;;
18776;SDS011;9517;51.174;4.160;2023-08-12T12:41:59;3.10;;;0.88;;
18776;SDS011;9517;51.174;4.160;2023-08-12T12:44:28;3.47;;;1.02;;
18776;SDS011;9517;51.174;4.160;2023-08-12T12:46:55;2.17;;;0.73;;
18776;SDS011;9517;51.174;4.160;2023-08-12T12:49:22;4.97;;;1.35;;
18776;SDS011;9517;51.174;4.160;2023-08-12T12:51:49;4.80;;;0.80;;
18776;SDS011;9517;51.174;4.160;2023-08-12T12:54:17;4.68;;;0.80;;
18776;SDS011;9517;51.174;4.160;2023-08-12T12:56:44;4.93;;;0.93;;
18776;SDS011;9517;51.174;4.160;2023-08-12T12:59:11;2.25;;;0.63;;
18776;SDS011;9517;51.174;4.160;2023-08-12T13:01:41;4.32;;;1.00;;
18776;SDS011;9517;51.174;4.160;2023-08-12T13:04:08;4.35;;;1.20;;
18776;SDS011;9517;51.174;4.160;2023-08-12T13:06:35;3.17;;;1.10;;
18776;SDS011;9517;51.174;4.160;2023-08-12T13:09:02;1.85;;;0.73;;
18776;SDS011;9517;51.174;4.160;2023-08-12T13:11:31;2.92;;;0.77;;
18776;SDS011;9517;51.174;4.160;2023-08-12T13:14:00;3.20;;;0.73;;
18776;SDS011;9517;51.174;4.160;2023-08-12T13:16:27;3.33;;;0.68;;
18776;SDS011;9517;51.174;4.160;2023-08-12T13:18:55;3.92;;;0.88;;
18776;SDS011;9517;51.174;4.160;2023-08-12T13:21:24;3.20;;;1.00;;
18776;SDS011;9517;51.174;4.160;2023-08-12T13:23:54;3.47;;;0.73;;
18776;SDS011;9517;51.174;4.160;2023-08-12T13:26:21;2.20;;;0.80;;
18776;SDS011;9517;51.174;4.160;2023-08-12T13:28:48;3.10;;;1.02;;
18776;SDS011;9517;51.174;4.160;2023-08-12T13:31:15;2.25;;;0.70;;
18776;SDS011;9517;51.174;4.160;2023-08-12T13:33:42;2.08;;;0.73;;
18776;SDS011;9517;51.174;4.160;2023-08-12T13:36:16;2.83;;;0.88;;
18776;SDS011;9517;51.174;4.160;2023-08-12T13:38:43;4.15;;;0.95;;
18776;SDS011;9517;51.174;4.160;2023-08-12T13:41:10;4.07;;;0.80;;
18776;SDS011;9517;51.174;4.160;2023-08-12T13:43:37;3.63;;;0.70;;
18776;SDS011;9517;51.174;4.160;2023-08-12T13:46:04;3.60;;;0.75;;
18776;SDS011;9517;51.174;4.160;2023-08-12T13:48:32;4.90;;;1.17;;
18776;SDS011;9517;51.174;4.160;2023-08-12T13:51:00;3.97;;;1.00;;
18776;SDS011;9517;51.174;4.160;2023-08-12T13:53:29;3.17;;;0.80;;
18776;SDS011;9517;51.174;4.160;2023-08-12T13:56:00;3.25;;;0.68;;
18776;SDS011;9517;51.174;4.160;2023-08-12T13:58:27;3.05;;;0.93;;
18776;SDS011;9517;51.174;4.160;2023-08-12T14:00:54;3.08;;;0.90;;
18776;SDS011;9517;51.174;4.160;2023-08-12T14:03:21;3.40;;;1.13;;
18776;SDS011;9517;51.174;4.160;2023-08-12T14:05:48;5.55;;;0.90;;
18776;SDS011;9517;51.174;4.160;2023-08-12T14:08:17;4.45;;;0.90;;
18776;SDS011;9517;51.174;4.160;2023-08-12T14:10:46;2.95;;;1.08;;
18776;SDS011;9517;51.174;4.160;2023-08-12T14:13:15;6.40;;;1.10;;
18776;SDS011;9517;51.174;4.160;2023-08-12T14:15:42;3.30;;;0.85;;
18776;SDS011;9517;51.174;4.160;2023-08-12T14:18:09;5.88;;;1.23;;
18776;SDS011;9517;51.174;4.160;2023-08-12T14:20:36;5.43;;;1.10;;
18776;SDS011;9517;51.174;4.160;2023-08-12T14:23:06;5.53;;;1.00;;
18776;SDS011;9517;51.174;4.160;2023-08-12T14:25:33;6.57;;;0.98;;
18776;SDS011;9517;51.174;4.160;2023-08-12T14:28:02;3.13;;;1.00;;
18776;SDS011;9517;51.174;4.160;2023-08-12T14:30:29;3.45;;;0.88;;
18776;SDS011;9517;51.174;4.160;2023-08-12T14:32:57;4.60;;;0.93;;
18776;SDS011;9517;51.174;4.160;2023-08-12T14:35:24;4.75;;;0.80;;
18776;SDS011;9517;51.174;4.160;2023-08-12T14:37:54;3.30;;;1.05;;
18776;SDS011;9517;51.174;4.160;2023-08-12T14:40:21;3.45;;;1.00;;
18776;SDS011;9517;51.174;4.160;2023-08-12T14:42:49;3.95;;;0.98;;
18776;SDS011;9517;51.174;4.160;2023-08-12T14:45:17;5.05;;;1.27;;
18776;SDS011;9517;51.174;4.160;2023-08-12T14:47:45;8.10;;;1.30;;
18776;SDS011;9517;51.174;4.160;2023-08-12T14:50:12;3.55;;;1.02;;
18776;SDS011;9517;51.174;4.160;2023-08-12T14:52:42;3.25;;;0.70;;
18776;SDS011;9517;51.174;4.160;2023-08-12T14:55:09;5.43;;;1.33;;
18776;SDS011;9517;51.174;4.160;2023-08-12T14:57:36;4.93;;;1.10;;
18776;SDS011;9517;51.174;4.160;2023-08-12T15:00:04;3.78;;;0.90;;
18776;SDS011;9517;51.174;4.160;2023-08-12T15:02:37;7.78;;;1.35;;